Time;durP1;ratioP1;P1;durP2;ratioP2;P2;SDS_P1;SDS_P2;PMS_P1;PMS_P2;Temp;Humidity;BMP_temperature;BMP_pressure;BME280_temperature;BME280_humidity;BME280_pressure;Samples;Min_cycle;Max_cycle;Signal;HPM_P1;HPM_P2
2023/07/18 05:36:21;;;;;;;8.00;6.00;;;18.00;99.90;;;;;;5891318;24;20406;-78
2023/07/18 05:38:51;;;;;;;9.53;6.27;;;18.00;99.90;;;;;;5965624;24;20410;-79
2023/07/18 05:41:49;;;;;;;7.30;6.50;;;18.10;99.90;;;;;;6015323;23;20448;-79
2023/07/18 05:44:30;;;;;;;10.40;6.20;;;18.30;99.90;;;;;;6156091;23;20435;-78
2023/07/18 05:47:02;;;;;;;7.73;6.30;;;18.40;99.90;;;;;;6158770;23;20496;-77
2023/07/18 05:49:40;;;;;;;6.60;5.60;;;18.50;99.90;;;;;;6156483;23;20427;-78
2023/07/18 05:52:14;;;;;;;8.07;5.70;;;18.50;99.90;;;;;;6157592;23;20408;-79
2023/07/18 05:54:52;;;;;;;7.47;5.60;;;18.50;99.90;;;;;;6156437;23;20829;-77
2023/07/18 05:57:34;;;;;;;7.73;6.03;;;18.50;99.90;;;;;;6157344;23;20424;-78
2023/07/18 06:00:11;;;;;;;6.67;5.63;;;18.70;99.90;;;;;;6157786;23;20412;-78
2023/07/18 06:02:47;;;;;;;7.33;5.77;;;18.80;99.90;;;;;;6158058;23;20408;-78
2023/07/18 06:05:27;;;;;;;7.67;5.47;;;18.90;99.90;;;;;;6162009;23;20438;-78
2023/07/18 06:07:57;;;;;;;8.70;5.20;;;18.90;99.90;;;;;;6167794;23;20426;-78
2023/07/18 06:10:33;;;;;;;8.10;5.97;;;19.00;99.90;;;;;;6165555;23;20503;-79
2023/07/18 06:13:11;;;;;;;5.60;4.63;;;19.10;99.90;;;;;;6164942;23;20434;-78
2023/07/18 06:16:11;;;;;;;8.20;4.87;;;19.20;99.90;;;;;;6165729;23;20501;-78
2023/07/18 06:18:41;;;;;;;8.03;5.33;;;19.30;99.90;;;;;;6166974;23;20401;-77
2023/07/18 06:21:17;;;;;;;9.57;4.87;;;19.40;99.90;;;;;;6164283;23;20430;-78
2023/07/18 06:23:50;;;;;;;5.30;4.80;;;19.40;99.90;;;;;;6162340;23;20438;-79
2023/07/18 06:26:34;;;;;;;6.50;5.30;;;19.50;99.90;;;;;;6162446;23;20394;-79
2023/07/18 06:29:07;;;;;;;9.60;5.77;;;19.60;99.90;;;;;;6162867;23;20395;-81
2023/07/18 06:31:46;;;;;;;6.20;5.27;;;19.70;99.90;;;;;;6162285;23;20456;-78
2023/07/18 06:34:18;;;;;;;9.20;5.67;;;19.70;99.90;;;;;;6164942;23;20781;-76
2023/07/18 06:37:09;;;;;;;6.17;4.90;;;19.70;99.90;;;;;;6166558;23;20403;-76
2023/07/18 06:39:58;;;;;;;13.20;5.23;;;19.80;99.90;;;;;;6166295;23;20413;-78
2023/07/18 06:42:44;;;;;;;7.50;4.93;;;19.90;99.90;;;;;;6163558;23;20419;-78
2023/07/18 06:45:25;;;;;;;12.13;5.83;;;20.00;99.90;;;;;;6163570;23;20428;-78
2023/07/18 06:48:03;;;;;;;4.60;4.20;;;19.80;99.90;;;;;;6163289;23;20421;-78
2023/07/18 06:50:39;;;;;;;5.90;4.53;;;20.10;99.90;;;;;;6165062;23;20420;-78
2023/07/18 10:13:20;;;;;;;3.50;2.90;;;28.40;97.30;;;;;;5927413;24;20435;-78
2023/07/18 10:16:20;;;;;;;3.43;2.50;;;28.10;97.40;;;;;;5979219;24;20453;-79
2023/07/18 10:18:57;;;;;;;4.00;3.03;;;28.10;96.60;;;;;;6014769;23;20419;-78
2023/07/18 10:21:42;;;;;;;6.10;3.50;;;27.80;96.30;;;;;;6139455;23;20419;-79
2023/07/18 10:24:28;;;;;;;3.77;2.70;;;27.70;96.30;;;;;;6156607;23;20440;-80
2023/07/18 10:27:00;;;;;;;4.40;2.87;;;27.60;96.60;;;;;;6160295;23;20412;-79
2023/07/18 10:29:35;;;;;;;3.53;3.00;;;27.70;97.10;;;;;;6155544;23;20414;-81
2023/07/18 10:32:06;;;;;;;3.00;2.80;;;27.70;96.50;;;;;;6154994;23;20414;-79
2023/07/18 10:34:39;;;;;;;3.23;2.87;;;27.80;96.20;;;;;;6156306;23;20447;-78
2023/07/18 10:37:10;;;;;;;5.70;3.53;;;27.70;96.80;;;;;;6158809;23;20417;-78
2023/07/18 10:39:41;;;;;;;5.67;3.40;;;27.80;97.30;;;;;;6155192;23;20416;-77
2023/07/18 10:42:24;;;;;;;4.33;3.63;;;27.60;97.20;;;;;;6156087;23;20416;-79
2023/07/18 10:45:01;;;;;;;3.93;2.70;;;27.50;97.00;;;;;;6158401;23;20443;-79
2023/07/18 10:47:37;;;;;;;3.97;3.57;;;27.30;97.50;;;;;;6158868;23;20404;-80
2023/07/18 10:50:09;;;;;;;5.00;3.30;;;27.00;98.10;;;;;;6160204;23;20416;-79
2023/07/18 10:52:41;;;;;;;3.50;3.20;;;27.00;98.00;;;;;;6161502;23;20961;-78
2023/07/18 10:55:12;;;;;;;3.20;2.93;;;27.40;97.90;;;;;;6159831;23;20471;-78
2023/07/18 10:57:45;;;;;;;6.33;3.30;;;27.40;97.80;;;;;;6159435;23;20420;-80
2023/07/18 11:00:14;;;;;;;5.83;3.37;;;27.70;97.70;;;;;;6162287;23;20431;-77
2023/07/18 11:02:47;;;;;;;3.90;3.20;;;27.80;97.50;;;;;;6159377;23;20922;-79
2023/07/18 11:05:21;;;;;;;4.37;3.20;;;28.30;96.70;;;;;;6157657;23;20907;-79
2023/07/18 11:07:56;;;;;;;4.90;3.33;;;28.10;96.60;;;;;;6158254;23;20450;-81
2023/07/18 11:10:26;;;;;;;4.53;3.70;;;28.00;96.30;;;;;;6162382;23;20416;-80
2023/07/18 11:13:01;;;;;;;4.30;3.80;;;27.90;96.60;;;;;;6159447;23;20409;-78
2023/07/18 11:15:35;;;;;;;4.23;3.83;;;27.90;96.60;;;;;;6156362;23;20443;-79
2023/07/18 11:18:07;;;;;;;3.53;2.70;;;28.00;95.80;;;;;;6158357;23;20411;-79
2023/07/18 11:20:43;;;;;;;6.70;3.43;;;27.90;95.90;;;;;;6157379;23;20478;-77
2023/07/18 11:23:14;;;;;;;3.87;3.43;;;28.00;95.90;;;;;;6159046;23;20415;-79
2023/07/18 11:25:50;;;;;;;5.63;3.20;;;27.80;95.80;;;;;;6158974;23;20428;-77
2023/07/18 11:28:23;;;;;;;5.80;3.70;;;27.70;95.80;;;;;;6161312;23;20498;-80
2023/07/18 11:31:03;;;;;;;3.97;3.50;;;27.70;96.00;;;;;;6158848;23;20443;-80
2023/07/18 11:33:38;;;;;;;7.47;6.73;;;27.60;96.40;;;;;;6159166;23;20416;-81
2023/07/18 11:36:15;;;;;;;3.57;3.17;;;27.60;96.50;;;;;;6159458;23;20455;-79
2023/07/18 11:38:45;;;;;;;7.23;3.70;;;27.70;96.50;;;;;;6158224;23;20435;-77
2023/07/18 11:41:39;;;;;;;4.33;3.60;;;27.70;96.40;;;;;;6157922;23;20408;-78
2023/07/18 11:44:12;;;;;;;3.87;3.53;;;27.60;96.40;;;;;;6158651;23;20419;-80
2023/07/18 11:46:43;;;;;;;6.40;3.53;;;27.30;96.90;;;;;;6161228;23;20412;-79
2023/07/18 11:49:12;;;;;;;3.90;3.27;;;27.20;97.60;;;;;;6159940;23;20424;-79
2023/07/18 11:51:43;;;;;;;5.33;3.73;;;27.20;98.20;;;;;;6155652;23;20832;-79
2023/07/18 11:54:29;;;;;;;4.60;3.53;;;27.20;98.30;;;;;;6161595;23;20524;-79
2023/07/18 11:57:00;;;;;;;4.57;3.70;;;27.30;98.70;;;;;;6163238;23;20475;-77
2023/07/18 11:59:32;;;;;;;6.37;3.60;;;27.40;98.50;;;;;;6164924;23;20482;-78
2023/07/18 12:02:02;;;;;;;3.93;3.40;;;27.50;98.60;;;;;;6166711;23;20475;-80
2023/07/18 12:04:34;;;;;;;3.43;3.13;;;27.60;98.10;;;;;;6166667;23;20420;-79
2023/07/18 12:07:09;;;;;;;5.77;3.60;;;27.70;98.40;;;;;;6162738;23;20434;-79
2023/07/18 12:09:52;;;;;;;3.83;3.53;;;27.60;98.40;;;;;;6168453;23;20420;-80
2023/07/18 12:12:27;;;;;;;3.87;3.57;;;27.50;98.80;;;;;;6178525;23;20498;-78
2023/07/18 12:15:02;;;;;;;3.70;3.30;;;27.40;98.80;;;;;;6174671;23;20454;-79
2023/07/18 12:17:52;;;;;;;11.07;10.17;;;27.40;99.30;;;;;;6176033;23;20408;-79
2023/07/18 12:20:21;;;;;;;4.80;3.60;;;27.50;99.40;;;;;;6176796;23;20400;-79
2023/07/18 12:22:56;;;;;;;4.20;3.27;;;27.50;99.30;;;;;;6176420;23;20443;-80
2023/07/18 12:25:34;;;;;;;3.60;3.27;;;27.70;99.20;;;;;;6168802;23;20428;-82
2023/07/18 12:28:03;;;;;;;4.70;3.50;;;27.80;99.00;;;;;;6170485;23;20439;-80
2023/07/18 12:30:39;;;;;;;4.57;4.17;;;27.90;98.70;;;;;;6169352;23;20412;-80
2023/07/18 12:33:23;;;;;;;3.70;3.40;;;27.90;98.50;;;;;;6168569;23;20408;-79
2023/07/18 12:35:57;;;;;;;3.80;3.30;;;28.10;98.70;;;;;;6164944;23;20447;-80
2023/07/18 12:38:33;;;;;;;5.57;3.40;;;28.20;98.90;;;;;;6163815;23;20388;-78
2023/07/18 12:41:23;;;;;;;4.90;3.70;;;28.40;99.00;;;;;;6162899;23;20404;-80
2023/07/18 12:43:59;;;;;;;5.40;3.60;;;28.20;98.80;;;;;;6162358;23;20439;-79
2023/07/18 12:46:30;;;;;;;4.77;3.80;;;28.10;98.70;;;;;;6160827;23;20408;-78
2023/07/18 12:48:57;;;;;;;3.80;3.47;;;28.20;99.70;;;;;;6162616;23;20400;-80
2023/07/18 12:51:30;;;;;;;6.43;3.70;;;28.50;99.30;;;;;;6162256;23;20416;-78
2023/07/18 12:54:02;;;;;;;4.47;4.07;;;28.50;98.60;;;;;;6162000;23;20530;-79
2023/07/18 12:56:33;;;;;;;5.07;3.40;;;28.80;97.30;;;;;;6160243;23;20429;-79
2023/07/18 12:59:05;;;;;;;4.27;3.87;;;29.10;95.40;;;;;;6163295;23;20423;-77
2023/07/18 13:01:36;;;;;;;4.17;3.87;;;29.10;95.20;;;;;;6163455;23;20444;-77
2023/07/18 13:04:26;;;;;;;4.23;3.80;;;29.00;96.10;;;;;;6164939;23;20471;-78
2023/07/18 13:07:04;;;;;;;4.00;3.60;;;28.80;96.80;;;;;;6165153;23;20416;-78
2023/07/18 13:09:46;;;;;;;4.00;3.60;;;28.90;96.70;;;;;;6166209;23;20420;-79
2023/07/18 13:12:29;;;;;;;3.93;3.63;;;29.10;96.60;;;;;;6164142;23;20412;-79
2023/07/18 13:15:00;;;;;;;3.90;3.70;;;29.10;96.50;;;;;;6164901;23;20452;-79
2023/07/18 13:17:47;;;;;;;3.90;3.37;;;29.10;96.50;;;;;;6166843;23;20416;-79
2023/07/18 13:20:21;;;;;;;4.43;4.00;;;29.00;96.10;;;;;;6166724;23;20491;-81
2023/07/18 13:22:53;;;;;;;3.80;3.50;;;29.00;96.20;;;;;;6167373;23;20418;-79
2023/07/18 13:25:26;;;;;;;4.30;3.90;;;29.00;95.90;;;;;;6167531;23;20428;-77
2023/07/18 13:27:55;;;;;;;5.70;3.50;;;29.00;95.80;;;;;;6165552;23;20746;-79
2023/07/18 13:30:32;;;;;;;4.27;3.80;;;29.00;95.40;;;;;;6166087;23;20413;-81
2023/07/18 13:33:23;;;;;;;3.53;3.13;;;29.10;95.40;;;;;;6165421;23;20467;-80
2023/07/18 13:36:18;;;;;;;5.90;4.00;;;29.20;95.20;;;;;;6160469;23;20440;-79
2023/07/18 13:39:21;;;;;;;4.17;3.53;;;29.10;95.00;;;;;;6162338;23;20400;-79
2023/07/18 13:42:14;;;;;;;4.50;3.60;;;29.40;94.70;;;;;;6164587;23;20413;-81
2023/07/18 13:44:58;;;;;;;4.17;3.70;;;29.80;94.00;;;;;;6164963;23;20471;-80
2023/07/18 13:47:54;;;;;;;4.07;3.67;;;29.90;94.50;;;;;;6165478;23;20412;-79
2023/07/18 13:50:46;;;;;;;3.67;3.37;;;30.30;93.80;;;;;;6164636;23;20424;-81
2023/07/18 14:29:11;;;;;;;4.00;3.70;;;29.60;94.80;;;;;;5800570;24;20422;-78
2023/07/18 14:31:51;;;;;;;3.43;3.13;;;29.10;95.30;;;;;;5874286;24;20493;-79
2023/07/18 14:34:30;;;;;;;4.03;3.70;;;29.00;95.20;;;;;;6040459;23;20436;-79
2023/07/18 14:37:07;;;;;;;4.13;3.73;;;28.90;95.30;;;;;;6061950;23;20472;-80
2023/07/18 14:39:43;;;;;;;4.20;3.87;;;28.70;95.90;;;;;;6092724;23;20900;-80
2023/07/18 14:42:36;;;;;;;4.07;3.77;;;29.00;96.20;;;;;;6171453;23;20419;-79
2023/07/18 15:09:51;;;;;;;4.50;4.10;;;29.60;94.70;;;;;;6199169;23;20463;-79
2023/07/18 15:12:30;;;;;;;6.30;4.00;;;29.50;94.80;;;;;;6194860;23;20407;-79
2023/07/18 15:15:02;;;;;;;4.87;4.00;;;29.90;94.80;;;;;;6199080;23;20413;-79
2023/07/18 15:17:44;;;;;;;4.37;4.00;;;30.20;94.60;;;;;;6202115;23;20396;-80
2023/07/18 15:20:18;;;;;;;4.20;3.90;;;30.50;94.20;;;;;;6202899;23;20462;-81
2023/07/18 15:22:51;;;;;;;3.93;3.63;;;30.80;93.90;;;;;;6204021;23;20407;-79
2023/07/18 15:25:25;;;;;;;4.37;3.97;;;31.10;94.00;;;;;;6202545;23;20423;-80
2023/07/18 15:28:02;;;;;;;4.80;4.40;;;31.50;93.70;;;;;;6199606;23;20430;-78
2023/07/18 15:30:36;;;;;;;5.73;3.73;;;31.50;92.60;;;;;;6197774;23;20422;-79
2023/07/18 15:33:06;;;;;;;4.53;4.17;;;31.60;92.50;;;;;;6197926;23;20411;-80
2023/07/18 15:35:35;;;;;;;4.40;4.00;;;31.40;92.30;;;;;;6199017;23;20439;-79
2023/07/18 15:38:09;;;;;;;4.43;4.07;;;30.60;93.20;;;;;;6199115;23;20406;-79
2023/07/18 15:40:42;;;;;;;5.10;4.50;;;30.40;93.60;;;;;;6199379;23;20905;-78
2023/07/18 15:43:10;;;;;;;4.17;3.87;;;31.10;93.30;;;;;;6196924;23;20798;-79
2023/07/18 15:45:41;;;;;;;4.30;3.90;;;30.80;92.80;;;;;;6196155;23;20451;-82
2023/07/18 15:48:10;;;;;;;5.07;4.60;;;30.50;92.70;;;;;;6197434;23;20418;-78
2023/07/18 15:50:50;;;;;;;4.93;4.23;;;30.50;93.10;;;;;;6200368;23;20435;-81
2023/07/18 15:53:19;;;;;;;6.20;4.30;;;30.20;93.40;;;;;;6204148;23;20411;-79
2023/07/18 15:55:54;;;;;;;5.00;4.13;;;30.60;93.10;;;;;;6201462;23;20435;-81
2023/07/18 15:58:22;;;;;;;4.77;4.27;;;31.20;92.20;;;;;;6200962;23;20411;-81
2023/07/18 16:01:05;;;;;;;6.00;4.17;;;31.30;92.00;;;;;;6200295;23;20409;-79
2023/07/18 16:03:34;;;;;;;4.43;4.03;;;31.20;91.90;;;;;;6194842;23;20438;-79
2023/07/18 16:06:08;;;;;;;4.20;3.90;;;31.00;92.40;;;;;;6195794;23;20494;-80
2023/07/18 16:08:47;;;;;;;4.80;4.30;;;31.50;91.50;;;;;;6197302;23;20398;-79
2023/07/18 16:11:48;;;;;;;4.27;3.87;;;31.50;91.60;;;;;;6195776;23;20499;-78
2023/07/18 16:14:36;;;;;;;4.73;4.33;;;32.00;91.30;;;;;;6194831;23;20442;-80
2023/07/18 16:17:19;;;;;;;5.77;4.30;;;31.90;90.90;;;;;;6192917;23;20485;-79
2023/07/18 16:20:14;;;;;;;4.27;3.80;;;31.50;90.90;;;;;;6195691;23;20415;-81
2023/07/18 16:22:58;;;;;;;6.03;3.70;;;31.70;91.00;;;;;;6193182;23;20422;-80
2023/07/18 16:25:28;;;;;;;6.20;4.17;;;31.90;90.60;;;;;;6195118;23;20532;-79
2023/07/18 16:28:03;;;;;;;6.50;4.47;;;31.80;90.90;;;;;;6195952;23;20779;-79
2023/07/18 16:30:38;;;;;;;4.60;4.20;;;31.50;91.10;;;;;;6194735;23;20387;-81
2023/07/18 16:33:22;;;;;;;4.47;4.17;;;31.90;91.70;;;;;;6198946;23;20404;-81
2023/07/18 16:35:58;;;;;;;4.50;4.20;;;32.00;90.80;;;;;;6194923;23;20443;-80
2023/07/18 16:38:38;;;;;;;4.90;4.10;;;32.20;90.80;;;;;;6194969;23;20407;-80
2023/07/18 16:41:36;;;;;;;5.63;4.03;;;31.80;90.60;;;;;;6197894;23;20449;-80
2023/07/18 16:44:24;;;;;;;8.27;7.67;;;31.30;91.10;;;;;;6197475;23;20435;-78
2023/07/18 16:47:01;;;;;;;4.60;4.27;;;31.40;91.20;;;;;;6202599;23;20411;-79
2023/07/18 16:49:40;;;;;;;5.37;3.90;;;31.30;91.10;;;;;;6201958;23;20429;-79
2023/07/18 16:52:11;;;;;;;6.70;5.00;;;31.20;91.20;;;;;;6203401;23;20764;-79
2023/07/18 16:54:52;;;;;;;4.63;4.23;;;30.60;91.80;;;;;;6202271;23;20427;-79
2023/07/18 17:00:44;;;;;;;4.77;4.37;;;30.10;92.50;;;;;;6199463;23;20438;-79
2023/07/18 17:06:37;;;;;;;4.60;4.10;;;30.00;93.80;;;;;;6202848;23;20694;-79
2023/07/18 17:09:27;;;;;;;6.30;4.80;;;30.00;93.40;;;;;;6194790;23;20417;-79
2023/07/18 17:12:21;;;;;;;6.40;4.40;;;29.90;93.00;;;;;;6194576;23;20420;-82
2023/07/18 17:15:02;;;;;;;4.10;3.80;;;;;;;;;;6194275;23;20461;-82
2023/07/18 17:17:36;;;;;;;5.10;4.07;;;;;;;;;;6194287;23;20435;-80
2023/07/18 17:20:06;;;;;;;6.73;4.17;;;28.90;93.90;;;;;;6195321;23;20369;-78
2023/07/18 17:22:41;;;;;;;4.93;4.53;;;28.80;94.40;;;;;;6192701;23;20968;-77
2023/07/18 17:28:19;;;;;;;4.90;4.40;;;29.00;94.50;;;;;;6196048;23;20398;-79
2023/07/18 17:30:52;;;;;;;5.13;4.67;;;29.10;94.80;;;;;;6190830;23;20483;-81
2023/07/18 17:33:32;;;;;;;6.93;4.67;;;29.00;94.90;;;;;;6188550;23;20446;-81
2023/07/18 17:36:03;;;;;;;4.63;4.23;;;28.80;94.80;;;;;;6189848;23;20463;-79
2023/07/18 17:38:45;;;;;;;4.70;4.30;;;28.50;95.20;;;;;;6196685;23;20430;-80
2023/07/18 17:47:32;;;;;;;5.90;4.40;;;28.00;96.50;;;;;;6201090;23;20392;-80
2023/07/18 17:50:21;;;;;;;5.50;5.10;;;27.60;96.80;;;;;;6192635;23;20415;-80
2023/07/18 17:53:10;;;;;;;4.50;4.10;;;27.60;97.90;;;;;;6193899;23;20482;-80
2023/07/18 17:55:46;;;;;;;6.97;4.90;;;27.50;99.90;;;;;;6199441;23;20514;-80
2023/07/18 17:58:17;;;;;;;9.10;8.33;;;27.40;99.90;;;;;;6200344;23;20921;-78
2023/07/18 18:00:51;;;;;;;7.53;6.90;;;27.40;99.90;;;;;;6193015;23;20407;-79
2023/07/18 18:03:21;;;;;;;5.40;4.90;;;27.00;99.90;;;;;;6194400;23;20494;-81
2023/07/18 18:06:05;;;;;;;4.90;4.40;;;26.90;99.90;;;;;;6193444;23;20427;-80
2023/07/18 18:08:44;;;;;;;8.13;4.87;;;26.90;99.90;;;;;;6193313;23;20419;-81
2023/07/18 18:11:16;;;;;;;4.60;4.13;;;27.00;99.90;;;;;;6194741;23;20431;-81
2023/07/18 18:13:56;;;;;;;5.90;5.33;;;27.00;99.90;;;;;;6194924;23;20423;-78
2023/07/18 18:16:32;;;;;;;7.53;4.77;;;27.10;99.90;;;;;;6193636;23;20439;-81
2023/07/18 18:19:03;;;;;;;5.63;5.13;;;27.10;99.90;;;;;;6193583;23;20488;-81
2023/07/18 18:21:57;;;;;;;6.37;5.87;;;27.00;99.90;;;;;;6189517;23;20491;-79
2023/07/18 18:24:46;;;;;;;6.23;4.73;;;27.00;99.90;;;;;;6192859;23;20489;-81
2023/07/18 18:30:11;;;;;;;7.80;5.50;;;26.70;99.90;;;;;;6194808;23;20402;-82
2023/07/18 18:32:52;;;;;;;6.80;5.80;;;26.60;99.90;;;;;;6193918;23;20410;-81
2023/07/18 18:35:39;;;;;;;7.03;5.40;;;26.40;99.90;;;;;;6193303;23;20437;-82
2023/07/18 18:38:41;;;;;;;7.90;5.70;;;26.40;99.90;;;;;;6195564;23;20451;-81
2023/07/18 18:41:16;;;;;;;6.20;4.97;;;26.30;99.90;;;;;;6202790;23;20433;-78
2023/07/18 18:43:53;;;;;;;4.70;4.30;;;26.20;99.90;;;;;;6199619;23;20411;-80
2023/07/18 18:46:24;;;;;;;5.50;5.00;;;26.10;99.90;;;;;;6199331;23;20419;-81
2023/07/18 18:48:56;;;;;;;5.23;4.70;;;26.10;99.90;;;;;;6199784;23;20415;-78
2023/07/18 18:51:31;;;;;;;5.20;4.70;;;25.80;99.90;;;;;;6200781;23;20407;-80
2023/07/18 18:54:08;;;;;;;4.67;4.27;;;25.40;99.90;;;;;;6201502;23;20431;-80
2023/07/18 18:56:37;;;;;;;4.87;4.47;;;25.60;99.90;;;;;;6200135;23;20419;-79
2023/07/18 18:59:14;;;;;;;5.93;5.00;;;25.60;99.90;;;;;;6200358;23;20403;-83
2023/07/18 19:01:51;;;;;;;4.93;4.53;;;25.50;99.90;;;;;;6199994;23;20466;-79
2023/07/18 19:04:19;;;;;;;10.00;5.97;;;25.50;99.90;;;;;;6201414;23;20495;-78
2023/07/18 19:06:49;;;;;;;6.43;5.70;;;25.30;99.90;;;;;;6201658;23;20419;-81
2023/07/18 19:09:18;;;;;;;6.10;5.60;;;25.10;99.90;;;;;;6195783;23;20481;-79
2023/07/18 19:11:45;;;;;;;7.60;5.10;;;24.90;99.90;;;;;;6193806;23;20434;-81
2023/07/18 19:14:17;;;;;;;5.23;4.73;;;24.70;99.90;;;;;;6193782;23;20478;-79
2023/07/18 19:16:45;;;;;;;6.80;5.23;;;24.50;99.90;;;;;;6194256;23;20436;-79
2023/07/18 19:19:21;;;;;;;5.50;5.10;;;24.20;99.90;;;;;;6201798;23;20437;-80
2023/07/18 19:22:01;;;;;;;5.90;5.40;;;24.00;99.90;;;;;;6202879;23;20454;-79
2023/07/18 19:25:12;;;;;;;7.10;6.13;;;23.80;99.90;;;;;;6203124;23;20531;-81
2023/07/18 19:28:17;;;;;;;7.23;5.63;;;23.80;99.90;;;;;;6191385;23;20403;-79
2023/07/18 19:30:59;;;;;;;6.97;6.27;;;23.70;99.90;;;;;;6198968;23;20415;-82
2023/07/18 19:33:43;;;;;;;9.30;6.43;;;23.40;99.90;;;;;;6202397;23;20402;-82
2023/07/18 19:36:16;;;;;;;9.17;6.50;;;23.30;99.90;;;;;;6203600;23;20442;-80
2023/07/18 19:38:49;;;;;;;7.40;6.00;;;23.00;99.90;;;;;;6201983;23;20399;-80
2023/07/18 19:41:36;;;;;;;8.20;6.83;;;23.00;99.90;;;;;;6202475;23;20411;-79
2023/07/18 19:44:23;;;;;;;8.07;6.77;;;22.80;99.90;;;;;;6201459;23;20430;-77
2023/07/18 19:47:29;;;;;;;9.53;6.13;;;22.90;99.90;;;;;;6201192;23;20406;-78
2023/07/18 19:50:42;;;;;;;;;;;;;;;;;;;;;
2023/07/18 19:56:04;;;;;;;9.93;7.73;;;22.80;99.90;;;;;;6203180;23;20402;-78
2023/07/18 19:58:46;;;;;;;7.13;6.37;;;22.80;99.90;;;;;;6200061;23;20739;-80
2023/07/18 20:01:35;;;;;;;;;;;;;;;;;;;;;
2023/07/18 20:04:35;;;;;;;8.27;7.47;;;22.70;99.90;;;;;;6197992;23;20943;-81
2023/07/18 20:07:32;;;;;;;;;;;;;;;;;;;;;
2023/07/18 20:10:27;;;;;;;9.70;7.40;;;22.60;99.90;;;;;;6198074;23;20388;-79
2023/07/18 20:13:05;;;;;;;8.27;6.77;;;22.60;99.90;;;;;;6198114;23;20407;-79
2023/07/18 20:15:49;;;;;;;7.80;7.10;;;22.50;99.90;;;;;;6196644;23;20434;-82
2023/07/18 20:18:22;;;;;;;7.57;6.73;;;22.40;99.90;;;;;;6191072;23;20832;-78
2023/07/18 20:21:23;;;;;;;7.23;6.20;;;22.30;99.90;;;;;;6194364;23;20773;-80
2023/07/18 20:24:27;;;;;;;7.53;6.80;;;22.10;99.90;;;;;;6192394;23;20924;-79
2023/07/18 20:30:24;;;;;;;9.90;7.47;;;22.20;99.90;;;;;;6188712;23;20400;-79
2023/07/18 20:33:23;;;;;;;9.73;7.80;;;22.20;99.90;;;;;;6193934;23;20422;-79
2023/07/18 20:55:26;;;;;;;7.43;6.70;;;21.80;99.90;;;;;;6180150;23;20837;-79
2023/07/18 20:57:59;;;;;;;8.67;7.63;;;21.80;99.90;;;;;;6190329;23;20449;-79
2023/07/18 21:01:34;;;;;;;;;;;;;;;;;;;;;
2023/07/18 21:07:41;;;;;;;9.57;7.40;;;21.70;99.90;;;;;;6041288;23;20398;-79
2023/07/18 21:10:50;;;;;;;9.80;8.03;;;21.60;99.90;;;;;;6075016;23;20378;-78
2023/07/18 21:14:24;;;;;;;10.90;8.13;;;21.60;99.90;;;;;;6073130;23;20448;-80
2023/07/18 21:17:29;;;;;;;9.20;8.10;;;21.60;99.90;;;;;;6019326;23;20516;-76
2023/07/18 21:20:56;;;;;;;9.60;8.17;;;21.50;99.90;;;;;;6126739;23;20891;-78
2023/07/18 21:23:44;;;;;;;8.50;7.73;;;21.50;99.90;;;;;;6020170;23;20492;-78
2023/07/18 21:26:49;;;;;;;8.13;7.20;;;21.50;99.90;;;;;;6197697;23;20403;-78
2023/07/18 21:29:35;;;;;;;7.77;7.07;;;21.50;99.90;;;;;;6147831;23;20451;-78
2023/07/18 21:35:31;;;;;;;8.77;7.97;;;21.40;99.90;;;;;;6189892;23;20435;-80
2023/07/18 21:38:36;;;;;;;9.10;7.80;;;21.30;99.90;;;;;;6190595;23;20495;-80
2023/07/18 21:44:28;;;;;;;8.57;7.30;;;21.20;99.90;;;;;;6202101;23;20510;-81
2023/07/18 21:47:17;;;;;;;9.17;8.10;;;21.20;99.90;;;;;;6203390;23;20364;-78
2023/07/18 21:49:57;;;;;;;8.83;7.70;;;21.20;99.90;;;;;;6155680;23;20438;-79
2023/07/18 21:52:41;;;;;;;9.00;7.90;;;21.10;99.90;;;;;;6202324;23;20395;-77
2023/07/18 21:55:33;;;;;;;8.23;7.43;;;21.20;99.90;;;;;;6196755;23;20466;-78
2023/07/18 22:01:38;;;;;;;7.27;6.57;;;21.10;99.90;;;;;;6136488;23;20750;-79
2023/07/18 22:04:41;;;;;;;7.77;7.17;;;21.00;99.90;;;;;;6190843;23;20427;-77
2023/07/18 22:07:50;;;;;;;7.83;7.03;;;21.00;99.90;;;;;;6193340;23;20498;-79
2023/07/18 22:10:47;;;;;;;7.83;7.17;;;20.90;99.90;;;;;;6187586;23;20427;-78
2023/07/18 22:13:30;;;;;;;7.73;6.67;;;20.90;99.90;;;;;;6190289;23;20404;-78
2023/07/18 22:16:09;;;;;;;7.60;6.80;;;20.80;99.90;;;;;;6190975;23;20442;-78
2023/07/18 22:18:53;;;;;;;8.13;7.33;;;20.70;99.90;;;;;;6190783;23;20431;-79
2023/07/18 22:21:47;;;;;;;8.80;7.90;;;20.80;99.90;;;;;;6191709;23;20434;-78
2023/07/18 22:24:27;;;;;;;8.97;6.80;;;20.70;99.90;;;;;;6190670;23;20518;-79
2023/07/18 22:27:04;;;;;;;7.10;6.53;;;20.70;99.90;;;;;;6191371;23;20459;-79
2023/07/18 22:29:51;;;;;;;7.97;6.77;;;20.70;99.90;;;;;;6190931;23;20439;-78
2023/07/18 22:32:57;;;;;;;11.20;6.80;;;20.70;99.90;;;;;;6193930;23;20919;-77
2023/07/18 22:39:41;;;;;;;8.80;7.10;;;20.70;99.90;;;;;;6180118;23;20439;-79
2023/07/18 22:46:35;;;;;;;6.60;6.00;;;20.60;99.90;;;;;;6069664;23;20509;-77
2023/07/18 22:49:29;;;;;;;8.63;6.43;;;20.50;99.90;;;;;;6073167;23;20418;-77
2023/07/18 22:55:47;;;;;;;;;;;;;;;;;;;;;
2023/07/18 22:59:01;;;;;;;7.67;6.90;;;20.50;99.90;;;;;;6173401;23;20484;-78
2023/07/18 23:02:42;;;;;;;;;;;;;;;;;;;;;
2023/07/18 23:05:53;;;;;;;7.37;6.67;;;20.50;99.90;;;;;;6098835;23;20418;-76
2023/07/18 23:15:50;;;;;;;7.77;6.97;;;20.50;99.90;;;;;;6174528;23;20415;-77
2023/07/18 23:18:53;;;;;;;8.13;6.67;;;20.40;99.90;;;;;;6182373;23;20450;-77
2023/07/18 23:21:55;;;;;;;7.10;6.40;;;20.40;99.90;;;;;;6191201;23;21053;-78
2023/07/18 23:25:02;;;;;;;6.97;6.37;;;20.40;99.90;;;;;;6190025;23;20422;-79
2023/07/18 23:34:15;;;;;;;9.60;6.83;;;20.20;99.90;;;;;;6192057;23;20457;-77
2023/07/18 23:40:16;;;;;;;9.10;7.30;;;20.10;99.90;;;;;;6163907;23;20404;-77
2023/07/18 23:42:59;;;;;;;8.10;7.30;;;20.10;99.90;;;;;;6171051;23;20432;-78
2023/07/18 23:46:03;;;;;;;11.03;8.03;;;20.00;99.90;;;;;;6172568;23;21083;-77
2023/07/18 23:48:45;;;;;;;10.40;7.43;;;20.00;99.90;;;;;;6174660;23;20975;-77
2023/07/18 23:51:41;;;;;;;8.80;7.70;;;20.00;99.90;;;;;;6174438;23;20424;-78
2023/07/18 23:54:35;;;;;;;10.03;7.37;;;20.00;99.90;;;;;;6173497;23;20447;-79
2023/07/18 23:57:20;;;;;;;10.73;7.50;;;20.00;99.90;;;;;;6174367;23;20484;-80
